Time;durP1;ratioP1;P1;durP2;ratioP2;P2;SDS_P1;SDS_P2;PMS_P1;PMS_P2;Temp;Humidity;BMP_temperature;BMP_pressure;BME280_temperature;BME280_humidity;BME280_pressure;Samples;Min_cycle;Max_cycle;Signal;HPM_P1;HPM_P2
2022/11/29 00:01:13;;;;;;;2.55;1.00;;;;;;;;;;4989734;28;20171;-69
2022/11/29 00:03:39;;;;;;;1.95;1.10;;;;;;;;;;4973002;28;20050;-68
2022/11/29 00:06:11;;;;;;;1.77;0.90;;;;;;;;;;4995380;28;20061;-66
2022/11/29 00:08:38;;;;;;;1.23;0.80;;;;;;;;;;4988436;28;20072;-66
2022/11/29 00:11:09;;;;;;;5.40;1.00;;;;;;;;;;4993249;28;20072;-67
2022/11/29 00:13:35;;;;;;;3.13;0.95;;;;;;;;;;4999582;28;20058;-66
2022/11/29 00:16:09;;;;;;;1.65;0.85;;;;;;;;;;4991969;28;20050;-67
2022/11/29 00:18:35;;;;;;;1.38;0.75;;;;;;;;;;4986544;28;21095;-66
2022/11/29 00:21:06;;;;;;;3.65;0.80;;;;;;;;;;4969711;28;20058;-69
2022/11/29 00:23:32;;;;;;;3.47;0.80;;;;;;;;;;4990351;28;20073;-67
2022/11/29 00:26:06;;;;;;;2.03;0.70;;;;;;;;;;4991092;28;20460;-67
2022/11/29 00:28:32;;;;;;;2.00;0.80;;;;;;;;;;4988163;28;20049;-66
2022/11/29 00:30:58;;;;;;;2.33;0.80;;;;;;;;;;4991766;28;20338;-67
2022/11/29 00:33:24;;;;;;;3.28;0.90;;;;;;;;;;4992271;28;20422;-66
2022/11/29 00:35:50;;;;;;;2.70;0.90;;;;;;;;;;4990838;28;20064;-66
2022/11/29 00:38:16;;;;;;;2.47;1.05;;;;;;;;;;4990134;28;20050;-69
2022/11/29 00:40:42;;;;;;;1.85;0.68;;;;;;;;;;4988963;28;20065;-68
2022/11/29 00:43:08;;;;;;;1.23;0.70;;;;;;;;;;4991621;28;20420;-68
2022/11/29 00:45:34;;;;;;;1.33;0.70;;;;;;;;;;4991976;28;20058;-65
2022/11/29 00:48:00;;;;;;;4.00;1.15;;;;;;;;;;4991825;28;20052;-65
2022/11/29 00:50:26;;;;;;;2.00;0.90;;;;;;;;;;4973598;28;20054;-66
2022/11/29 00:52:52;;;;;;;2.42;0.88;;;;;;;;;;4989778;28;20172;-66
2022/11/29 00:55:18;;;;;;;3.28;0.90;;;;;;;;;;4992274;28;20049;-66
2022/11/29 00:57:44;;;;;;;2.00;0.70;;;;;;;;;;4995354;28;20057;-66
2022/11/29 01:00:10;;;;;;;2.15;1.10;;;;;;;;;;4989993;28;20131;-66
2022/11/29 01:02:36;;;;;;;2.60;0.90;;;;;;;;;;4986663;28;20061;-65
2022/11/29 01:05:03;;;;;;;3.53;1.30;;;;;;;;;;4990912;28;20587;-68
2022/11/29 01:07:28;;;;;;;1.52;0.80;;;;;;;;;;4991665;28;20049;-66
2022/11/29 01:09:55;;;;;;;0.65;0.65;;;;;;;;;;4988281;28;20084;-67
2022/11/29 01:12:21;;;;;;;1.73;0.73;;;;;;;;;;4989057;28;20686;-67
2022/11/29 01:14:47;;;;;;;4.97;1.00;;;;;;;;;;4987443;28;20167;-69
2022/11/29 01:17:13;;;;;;;2.20;0.90;;;;;;;;;;4974070;28;20056;-66
2022/11/29 01:19:39;;;;;;;1.65;0.80;;;;;;;;;;4991061;28;20050;-66
2022/11/29 01:22:05;;;;;;;2.50;1.30;;;;;;;;;;4993602;28;20351;-66
2022/11/29 01:24:31;;;;;;;1.35;0.80;;;;;;;;;;4973568;28;20076;-66
2022/11/29 01:26:57;;;;;;;1.75;1.20;;;;;;;;;;4991615;28;20050;-65
2022/11/29 01:29:23;;;;;;;1.50;0.80;;;;;;;;;;4986155;28;20045;-65
2022/11/29 01:31:49;;;;;;;4.07;1.10;;;;;;;;;;4990191;28;20136;-66
2022/11/29 01:34:15;;;;;;;2.78;0.98;;;;;;;;;;4985634;28;20034;-66
2022/11/29 01:36:41;;;;;;;1.00;0.50;;;;;;;;;;4990259;28;20069;-65
2022/11/29 01:39:07;;;;;;;3.17;0.88;;;;;;;;;;4990056;28;20042;-65
2022/11/29 01:41:35;;;;;;;4.65;1.50;;;;;;;;;;4991691;28;20761;-70
2022/11/29 01:44:06;;;;;;;2.55;0.90;;;;;;;;;;4993813;28;20065;-69
2022/11/29 01:46:35;;;;;;;2.72;1.00;;;;;;;;;;4990558;28;20144;-66
2022/11/29 01:49:19;;;;;;;3.00;1.10;;;;;;;;;;4987776;28;20124;-65
2022/11/29 01:51:49;;;;;;;1.80;0.73;;;;;;;;;;4990535;28;20105;-66
2022/11/29 01:54:17;;;;;;;1.30;0.73;;;;;;;;;;4988555;28;20057;-69
2022/11/29 01:56:46;;;;;;;4.85;0.88;;;;;;;;;;4990659;28;20141;-65
2022/11/29 01:59:16;;;;;;;3.80;0.63;;;;;;;;;;4988737;28;20045;-67
2022/11/29 02:01:41;;;;;;;1.83;0.70;;;;;;;;;;4993235;28;20041;-66
2022/11/29 02:04:08;;;;;;;2.30;0.77;;;;;;;;;;4989931;28;20076;-65
2022/11/29 02:06:35;;;;;;;2.00;1.00;;;;;;;;;;4991474;28;20080;-66
2022/11/29 02:09:02;;;;;;;2.03;1.00;;;;;;;;;;4984481;28;20092;-66
2022/11/29 02:12:00;;;;;;;2.05;0.80;;;;;;;;;;4992612;28;20056;-65
2022/11/29 02:14:45;;;;;;;2.60;0.70;;;;;;;;;;4910558;29;20102;-67
2022/11/29 02:17:23;;;;;;;2.08;0.70;;;;;;;;;;4908830;29;20058;-68
2022/11/29 02:20:11;;;;;;;2.80;0.70;;;;;;;;;;4905440;29;20063;-66
2022/11/29 02:22:43;;;;;;;2.08;0.65;;;;;;;;;;4910657;29;20055;-68
2022/11/29 02:25:31;;;;;;;2.30;0.90;;;;;;;;;;4905066;29;20052;-66
2022/11/29 02:28:35;;;;;;;1.70;0.70;;;;;;;;;;4906776;29;20069;-67
2022/11/29 02:31:22;;;;;;;0.77;0.57;;;;;;;;;;4906757;29;20124;-66
2022/11/29 02:34:20;;;;;;;2.15;0.70;;;;;;;;;;4907584;29;20114;-65
2022/11/29 02:37:17;;;;;;;2.03;0.70;;;;;;;;;;4906502;29;20059;-65
2022/11/29 02:40:36;;;;;;;4.63;0.80;;;;;;;;;;4902055;29;20203;-65
2022/11/29 02:43:17;;;;;;;2.05;0.90;;;;;;;;;;4888821;29;20058;-66
2022/11/29 02:45:50;;;;;;;2.53;0.73;;;;;;;;;;4905472;29;20051;-65
2022/11/29 02:48:26;;;;;;;1.92;0.60;;;;;;;;;;4905351;29;20138;-69
2022/11/29 02:51:19;;;;;;;2.42;0.65;;;;;;;;;;4942347;28;20920;-65
2022/11/29 02:54:09;;;;;;;6.38;2.38;;;;;;;;;;4991225;28;20833;-65
2022/11/29 02:57:24;;;;;;;2.35;1.13;;;;;;;;;;4989819;28;20058;-65
2022/11/29 03:00:02;;;;;;;2.05;0.80;;;;;;;;;;4890574;29;20082;-67
2022/11/29 03:02:55;;;;;;;3.05;0.80;;;;;;;;;;4910854;29;20048;-66
2022/11/29 03:05:43;;;;;;;2.42;0.90;;;;;;;;;;4908649;29;20071;-67
2022/11/29 03:08:36;;;;;;;2.55;0.80;;;;;;;;;;4906664;29;20435;-66
2022/11/29 03:11:16;;;;;;;1.10;0.65;;;;;;;;;;4906162;29;20937;-65
2022/11/29 03:14:06;;;;;;;1.23;0.60;;;;;;;;;;4908905;29;20522;-66
2022/11/29 03:16:49;;;;;;;1.65;0.73;;;;;;;;;;4907324;29;20062;-67
2022/11/29 03:19:33;;;;;;;3.08;0.80;;;;;;;;;;4906733;29;20056;-66
2022/11/29 03:22:17;;;;;;;1.13;0.60;;;;;;;;;;4909242;29;20401;-67
2022/11/29 03:25:08;;;;;;;3.17;0.60;;;;;;;;;;4908501;29;20047;-68
2022/11/29 03:27:48;;;;;;;1.42;0.50;;;;;;;;;;4912107;29;20079;-65
2022/11/29 03:30:17;;;;;;;3.30;0.77;;;;;;;;;;4906540;29;20154;-66
2022/11/29 03:33:10;;;;;;;0.93;0.60;;;;;;;;;;4911865;28;20062;-67
2022/11/29 03:35:49;;;;;;;2.20;0.93;;;;;;;;;;4954734;28;20513;-68
2022/11/29 03:38:25;;;;;;;1.17;0.60;;;;;;;;;;4974359;28;20046;-65
2022/11/29 03:41:07;;;;;;;2.28;0.73;;;;;;;;;;4972979;28;20100;-65
2022/11/29 03:43:39;;;;;;;1.08;0.77;;;;;;;;;;4974249;28;20064;-67
2022/11/29 03:46:11;;;;;;;3.30;0.77;;;;;;;;;;4968240;28;20108;-65
2022/11/29 03:48:52;;;;;;;2.40;0.98;;;;;;;;;;4969788;28;20061;-67
2022/11/29 03:51:42;;;;;;;2.40;0.88;;;;;;;;;;4973008;28;20124;-64
2022/11/29 03:54:13;;;;;;;2.03;0.75;;;;;;;;;;4954893;28;20047;-67
2022/11/29 03:56:39;;;;;;;2.45;0.68;;;;;;;;;;4970130;28;20050;-65
2022/11/29 03:59:23;;;;;;;3.42;0.80;;;;;;;;;;4973878;28;20065;-65
2022/11/29 04:02:26;;;;;;;2.85;0.93;;;;;;;;;;4974718;28;20053;-67
2022/11/29 04:05:11;;;;;;;1.67;0.75;;;;;;;;;;4971934;28;20133;-66
2022/11/29 04:08:00;;;;;;;1.73;0.80;;;;;;;;;;4977241;28;20046;-68
2022/11/29 04:10:58;;;;;;;2.67;0.90;;;;;;;;;;4972119;28;20591;-67
2022/11/29 04:13:38;;;;;;;0.77;0.57;;;;;;;;;;4973242;28;20115;-67
2022/11/29 04:16:38;;;;;;;1.92;0.80;;;;;;;;;;4976468;28;20358;-66
2022/11/29 04:19:56;;;;;;;1.65;0.60;;;;;;;;;;4969823;28;20066;-65
2022/11/29 04:22:40;;;;;;;0.77;0.50;;;;;;;;;;4974263;28;20056;-66
2022/11/29 04:25:15;;;;;;;3.00;0.70;;;;;;;;;;4972672;28;20101;-66
2022/11/29 04:28:05;;;;;;;3.45;0.70;;;;;;;;;;4971677;28;20062;-65
2022/11/29 04:31:01;;;;;;;1.73;0.68;;;;;;;;;;4971958;28;20135;-69
2022/11/29 04:33:27;;;;;;;2.97;0.85;;;;;;;;;;4992528;28;20050;-65
2022/11/29 04:36:28;;;;;;;1.60;0.70;;;;;;;;;;4992536;28;20061;-66
2022/11/29 04:39:00;;;;;;;4.35;1.00;;;;;;;;;;4991104;28;20061;-67
2022/11/29 04:41:51;;;;;;;2.28;0.75;;;;;;;;;;4977673;28;20436;-67
2022/11/29 04:44:37;;;;;;;1.60;0.68;;;;;;;;;;4991155;28;20505;-68
2022/11/29 04:47:21;;;;;;;1.90;1.00;;;;;;;;;;4991749;28;20061;-65
2022/11/29 04:50:13;;;;;;;2.10;0.80;;;;;;;;;;4987524;28;20140;-67
2022/11/29 04:52:56;;;;;;;4.07;0.85;;;;;;;;;;4993694;28;20072;-67
2022/11/29 04:55:44;;;;;;;1.83;0.75;;;;;;;;;;4990460;28;20782;-67
2022/11/29 04:58:18;;;;;;;1.40;0.93;;;;;;;;;;4990633;28;20064;-65
2022/11/29 05:01:14;;;;;;;1.23;0.47;;;;;;;;;;4969665;28;20050;-65
2022/11/29 05:04:02;;;;;;;1.40;0.50;;;;;;;;;;4991426;28;20543;-65
2022/11/29 05:06:48;;;;;;;2.63;0.80;;;;;;;;;;4971727;28;20213;-64
2022/11/29 05:09:26;;;;;;;2.35;0.60;;;;;;;;;;4985962;28;20057;-67
2022/11/29 05:12:27;;;;;;;2.85;0.80;;;;;;;;;;4989359;28;20045;-65
2022/11/29 05:15:21;;;;;;;2.67;0.90;;;;;;;;;;4985647;28;20045;-67
2022/11/29 05:18:11;;;;;;;2.28;1.10;;;;;;;;;;4991147;28;20165;-67
2022/11/29 05:20:47;;;;;;;2.00;0.80;;;;;;;;;;4990365;28;20058;-66
2022/11/29 05:23:32;;;;;;;3.08;0.88;;;;;;;;;;4994490;28;20612;-68
2022/11/29 05:26:24;;;;;;;2.00;0.80;;;;;;;;;;4990736;28;20058;-66
2022/11/29 05:29:08;;;;;;;2.40;0.95;;;;;;;;;;4993782;28;20520;-69
2022/11/29 05:32:12;;;;;;;2.50;0.90;;;;;;;;;;4993368;28;20084;-67
2022/11/29 05:35:02;;;;;;;2.83;1.05;;;;;;;;;;4990687;28;20057;-68
2022/11/29 05:37:46;;;;;;;2.20;0.90;;;;;;;;;;4988433;28;20077;-68
2022/11/29 05:40:12;;;;;;;2.97;0.90;;;;;;;;;;4986463;28;20038;-67
2022/11/29 05:43:13;;;;;;;9.05;1.00;;;;;;;;;;4987232;28;20483;-66
2022/11/29 05:45:57;;;;;;;4.03;0.88;;;;;;;;;;4989644;28;20658;-67
2022/11/29 05:48:47;;;;;;;0.75;0.70;;;;;;;;;;4991082;28;20525;-67
2022/11/29 05:51:39;;;;;;;2.42;0.85;;;;;;;;;;4988733;28;20439;-66
2022/11/29 05:54:10;;;;;;;4.70;1.20;;;;;;;;;;4961320;28;20477;-67
2022/11/29 05:57:01;;;;;;;1.58;0.77;;;;;;;;;;4988245;28;20076;-65
2022/11/29 05:59:28;;;;;;;3.97;0.90;;;;;;;;;;4989678;28;20487;-67
2022/11/29 06:02:14;;;;;;;3.67;0.90;;;;;;;;;;4988674;28;20057;-66
2022/11/29 06:04:58;;;;;;;3.13;1.30;;;;;;;;;;4991751;28;20413;-68
2022/11/29 06:07:40;;;;;;;1.00;0.80;;;;;;;;;;4985174;28;20501;-67
2022/11/29 06:10:16;;;;;;;2.33;0.90;;;;;;;;;;4989716;28;20544;-68
2022/11/29 06:12:59;;;;;;;4.60;1.35;;;;;;;;;;4988254;28;20088;-65
2022/11/29 06:16:06;;;;;;;2.97;0.82;;;;;;;;;;4982092;28;20232;-67
2022/11/29 06:19:11;;;;;;;2.88;1.05;;;;;;;;;;4987616;28;20118;-67
2022/11/29 06:22:07;;;;;;;3.50;0.90;;;;;;;;;;4982180;28;20057;-65
2022/11/29 06:24:55;;;;;;;4.07;1.00;;;;;;;;;;4986294;28;20363;-67
2022/11/29 06:27:42;;;;;;;2.78;1.10;;;;;;;;;;4985558;28;20042;-66
2022/11/29 06:30:19;;;;;;;5.40;1.50;;;;;;;;;;4988453;28;20440;-65
2022/11/29 06:33:01;;;;;;;2.95;0.90;;;;;;;;;;4970894;28;20628;-63
2022/11/29 06:35:32;;;;;;;4.05;1.05;;;;;;;;;;4988440;28;20192;-65
2022/11/29 06:38:03;;;;;;;5.55;1.17;;;;;;;;;;4988368;28;20630;-65
2022/11/29 06:40:29;;;;;;;6.18;1.58;;;;;;;;;;4986912;28;20073;-65
2022/11/29 06:42:55;;;;;;;2.30;1.15;;;;;;;;;;4969828;28;20046;-64
2022/11/29 06:45:21;;;;;;;2.40;1.50;;;;;;;;;;4988631;28;20197;-69
2022/11/29 06:48:03;;;;;;;3.65;1.30;;;;;;;;;;4986244;28;20060;-67
2022/11/29 06:50:57;;;;;;;4.72;1.25;;;;;;;;;;4986732;28;20548;-65
2022/11/29 06:53:40;;;;;;;4.63;1.33;;;;;;;;;;4984703;28;20493;-68
2022/11/29 06:56:18;;;;;;;2.03;1.10;;;;;;;;;;4987089;28;20054;-70
2022/11/29 06:59:24;;;;;;;3.80;1.42;;;;;;;;;;4985350;28;20069;-68
2022/11/29 07:01:56;;;;;;;4.30;1.40;;;;;;;;;;4985037;28;20100;-67
2022/11/29 07:04:46;;;;;;;4.30;1.30;;;;;;;;;;4990769;28;20045;-68
2022/11/29 07:07:17;;;;;;;5.53;1.63;;;;;;;;;;4986976;28;20058;-68
2022/11/29 07:09:44;;;;;;;4.85;1.20;;;;;;;;;;4982755;28;20141;-68
2022/11/29 07:12:11;;;;;;;4.97;1.23;;;;;;;;;;4985652;28;20066;-65
2022/11/29 07:14:37;;;;;;;3.58;1.30;;;;;;;;;;4989113;28;20057;-69
2022/11/29 07:17:22;;;;;;;3.88;1.30;;;;;;;;;;4966973;28;20826;-67
2022/11/29 07:19:54;;;;;;;5.45;1.40;;;;;;;;;;4965331;28;20050;-67
2022/11/29 07:22:47;;;;;;;5.15;1.23;;;;;;;;;;4989197;28;20052;-66
2022/11/29 07:25:24;;;;;;;1.85;1.02;;;;;;;;;;4988081;28;20072;-68
2022/11/29 07:27:57;;;;;;;3.05;0.90;;;;;;;;;;4988356;28;20061;-69
2022/11/29 07:30:45;;;;;;;3.42;0.95;;;;;;;;;;4988225;28;20061;-68
2022/11/29 07:33:21;;;;;;;2.75;1.10;;;;;;;;;;4991886;28;20053;-65
2022/11/29 07:35:47;;;;;;;5.53;1.52;;;;;;;;;;4984069;28;20400;-66
2022/11/29 07:38:21;;;;;;;4.80;1.38;;;;;;;;;;4980863;28;20065;-67
2022/11/29 07:41:19;;;;;;;6.20;1.02;;;;;;;;;;4987598;28;20141;-66
2022/11/29 07:44:27;;;;;;;5.35;1.30;;;;;;;;;;4985454;28;22737;-68
2022/11/29 07:46:53;;;;;;;4.07;1.05;;;;;;;;;;4973261;28;20058;-68
2022/11/29 07:49:19;;;;;;;2.10;0.80;;;;;;;;;;4988017;28;20054;-69
2022/11/29 07:51:45;;;;;;;3.45;1.00;;;;;;;;;;4994135;28;20844;-68
2022/11/29 07:54:17;;;;;;;4.22;1.25;;;;;;;;;;4992799;28;20061;-67
2022/11/29 07:56:43;;;;;;;3.40;1.38;;;;;;;;;;4991624;28;20066;-70
2022/11/29 07:59:11;;;;;;;8.05;1.23;;;;;;;;;;4985180;28;20057;-69
2022/11/29 08:01:40;;;;;;;4.30;1.25;;;;;;;;;;4985282;28;20053;-65
2022/11/29 08:04:07;;;;;;;2.55;1.05;;;;;;;;;;4988434;28;20061;-67
2022/11/29 08:06:34;;;;;;;11.88;1.63;;;;;;;;;;4988646;28;20125;-68
2022/11/29 08:09:01;;;;;;;4.70;1.58;;;;;;;;;;4986528;28;20054;-68
2022/11/29 08:11:27;;;;;;;7.68;1.75;;;;;;;;;;4989139;28;20062;-64
2022/11/29 08:13:57;;;;;;;2.65;1.05;;;;;;;;;;4988397;28;20062;-66
2022/11/29 08:16:23;;;;;;;9.07;1.45;;;;;;;;;;4987819;28;20050;-70
2022/11/29 08:18:49;;;;;;;4.22;1.42;;;;;;;;;;4969276;28;20135;-70
2022/11/29 08:21:16;;;;;;;5.47;1.67;;;;;;;;;;4988452;28;20402;-67
2022/11/29 08:23:44;;;;;;;3.70;1.75;;;;;;;;;;4990437;28;20049;-69
2022/11/29 08:26:10;;;;;;;4.97;1.80;;;;;;;;;;4992321;28;20066;-68
2022/11/29 08:28:36;;;;;;;6.05;1.90;;;;;;;;;;4988481;28;20105;-68
2022/11/29 08:31:06;;;;;;;4.25;2.00;;;;;;;;;;4991278;28;20378;-69
2022/11/29 08:33:34;;;;;;;4.03;1.95;;;;;;;;;;4992562;28;20065;-67
2022/11/29 08:36:09;;;;;;;7.63;2.20;;;;;;;;;;4993820;28;20906;-66
2022/11/29 08:38:34;;;;;;;;;;;;;;;;;;4990817;28;20046;-67
2022/11/29 08:41:02;;;;;;;6.88;2.03;;;;;;;;;;4992266;28;19996;-69
2022/11/29 08:43:29;;;;;;;5.40;1.63;;;;;;;;;;4989640;28;20076;-66
2022/11/29 08:45:55;;;;;;;8.43;2.10;;;;;;;;;;4990344;28;20064;-65
2022/11/29 08:48:21;;;;;;;12.18;2.58;;;;;;;;;;4986870;28;20053;-67
2022/11/29 08:50:48;;;;;;;5.72;1.85;;;;;;;;;;4991851;28;20049;-67
2022/11/29 08:56:00;;;;;;;8.18;1.77;;;;;;;;;;4992503;28;20520;-68
2022/11/29 08:58:26;;;;;;;3.95;1.92;;;;;;;;;;4987182;28;20197;-69
2022/11/29 09:00:52;;;;;;;6.70;1.83;;;;;;;;;;4986666;28;20053;-67
2022/11/29 09:06:11;;;;;;;13.32;2.05;;;;;;;;;;4982066;28;20180;-67
2022/11/29 09:08:37;;;;;;;6.75;2.28;;;;;;;;;;4981842;28;20054;-69
2022/11/29 09:11:15;;;;;;;5.28;2.20;;;;;;;;;;4966204;28;20563;-69
2022/11/29 09:13:42;;;;;;;4.85;1.67;;;;;;;;;;4986741;28;20247;-66
2022/11/29 09:16:10;;;;;;;5.93;1.40;;;;;;;;;;4985223;28;20060;-65
2022/11/29 09:18:37;;;;;;;2.95;1.88;;;;;;;;;;4983944;28;20050;-66
2022/11/29 09:21:05;;;;;;;7.20;1.67;;;;;;;;;;4987330;28;20417;-69
2022/11/29 09:23:31;;;;;;;8.15;1.77;;;;;;;;;;4985894;28;20460;-67
2022/11/29 09:25:57;;;;;;;5.80;1.60;;;;;;;;;;4987658;28;20112;-68
2022/11/29 09:28:23;;;;;;;8.27;1.80;;;;;;;;;;4984734;28;20054;-68
2022/11/29 09:30:49;;;;;;;5.45;2.25;;;;;;;;;;4988391;28;20062;-69
2022/11/29 09:33:16;;;;;;;8.07;1.80;;;;;;;;;;4992031;28;20058;-68
2022/11/29 09:35:42;;;;;;;8.05;2.17;;;;;;;;;;4987639;28;20476;-67
2022/11/29 09:38:12;;;;;;;5.05;1.95;;;;;;;;;;4987463;28;20132;-68
2022/11/29 09:41:01;;;;;;;5.63;1.92;;;;;;;;;;4986248;28;20695;-68
2022/11/29 09:43:37;;;;;;;6.18;1.70;;;;;;;;;;4944148;28;20117;-67
2022/11/29 09:46:21;;;;;;;4.72;1.63;;;;;;;;;;4983428;28;21137;-70
2022/11/29 09:49:17;;;;;;;5.38;1.40;;;;;;;;;;4985027;28;20064;-70
2022/11/29 09:52:05;;;;;;;6.93;1.38;;;;;;;;;;4989687;28;20397;-71
2022/11/29 09:54:57;;;;;;;4.32;1.50;;;;;;;;;;4985183;28;20054;-69
2022/11/29 09:57:25;;;;;;;3.00;1.23;;;;;;;;;;4982432;28;20053;-68
2022/11/29 09:59:57;;;;;;;6.03;1.30;;;;;;;;;;4986130;28;20069;-70
2022/11/29 10:02:44;;;;;;;2.85;1.30;;;;;;;;;;4991340;28;20053;-68
2022/11/29 10:05:23;;;;;;;2.72;1.30;;;;;;;;;;4991609;28;20636;-68
2022/11/29 10:07:49;;;;;;;1.95;1.10;;;;;;;;;;4989230;28;20069;-68
2022/11/29 10:10:24;;;;;;;3.80;1.23;;;;;;;;;;4970955;28;20037;-69
2022/11/29 10:12:55;;;;;;;3.38;1.23;;;;;;;;;;4990921;28;20046;-68
2022/11/29 10:15:28;;;;;;;5.82;1.52;;;;;;;;;;4988817;28;20378;-68
2022/11/29 10:18:05;;;;;;;3.58;1.92;;;;;;;;;;4990685;28;20471;-68
2022/11/29 10:20:36;;;;;;;2.92;1.40;;;;;;;;;;4994595;28;20077;-72
2022/11/29 10:23:14;;;;;;;6.28;2.10;;;;;;;;;;4989697;28;20246;-71
2022/11/29 10:25:46;;;;;;;4.97;1.83;;;;;;;;;;4990470;28;20062;-71
2022/11/29 10:28:16;;;;;;;4.13;1.52;;;;;;;;;;4989154;28;20045;-69
2022/11/29 10:30:42;;;;;;;4.32;1.40;;;;;;;;;;4990827;28;20069;-68
2022/11/29 10:33:20;;;;;;;5.82;1.67;;;;;;;;;;4987490;28;20058;-69
2022/11/29 10:35:48;;;;;;;3.38;1.10;;;;;;;;;;4988918;28;20048;-70
2022/11/29 10:38:14;;;;;;;6.47;1.38;;;;;;;;;;4988782;28;20072;-68
2022/11/29 10:40:44;;;;;;;5.50;1.60;;;;;;;;;;4991899;28;20718;-70
2022/11/29 10:43:10;;;;;;;4.00;1.30;;;;;;;;;;4994102;28;20069;-69
2022/11/29 10:45:46;;;;;;;6.32;1.30;;;;;;;;;;4993546;28;20053;-69
2022/11/29 10:48:17;;;;;;;3.42;1.17;;;;;;;;;;4990958;28;20061;-71
2022/11/29 10:50:47;;;;;;;3.63;1.40;;;;;;;;;;4990754;28;20046;-69
2022/11/29 10:53:25;;;;;;;4.63;1.30;;;;;;;;;;4992151;28;20053;-68
2022/11/29 10:56:00;;;;;;;5.57;2.10;;;;;;;;;;4990054;28;20053;-67
2022/11/29 10:58:28;;;;;;;4.85;1.30;;;;;;;;;;4987987;28;20053;-68
2022/11/29 11:01:07;;;;;;;3.75;1.10;;;;;;;;;;4988549;28;20053;-67
2022/11/29 11:03:39;;;;;;;2.83;1.08;;;;;;;;;;4989383;28;21419;-69
2022/11/29 11:06:14;;;;;;;4.03;1.40;;;;;;;;;;4991613;28;20501;-69
2022/11/29 11:08:51;;;;;;;7.28;1.40;;;;;;;;;;4988604;28;20054;-68
2022/11/29 11:11:33;;;;;;;5.82;1.50;;;;;;;;;;4988895;28;20089;-67
2022/11/29 11:14:05;;;;;;;2.90;1.00;;;;;;;;;;4987118;28;20129;-71
2022/11/29 11:16:31;;;;;;;3.28;1.35;;;;;;;;;;4988376;28;20049;-67
2022/11/29 11:19:19;;;;;;;8.60;1.30;;;;;;;;;;4985889;28;20155;-67
2022/11/29 11:21:45;;;;;;;4.15;1.02;;;;;;;;;;4990450;28;20052;-70
2022/11/29 11:24:22;;;;;;;5.15;1.77;;;;;;;;;;4987999;28;20050;-69
2022/11/29 11:26:49;;;;;;;5.35;1.40;;;;;;;;;;4990227;28;20061;-71
2022/11/29 11:29:18;;;;;;;6.15;1.50;;;;;;;;;;4966517;28;20046;-69
2022/11/29 11:31:57;;;;;;;6.25;2.63;;;;;;;;;;4987973;28;20065;-72
2022/11/29 11:34:27;;;;;;;7.68;1.80;;;;;;;;;;4987894;28;20053;-72
2022/11/29 11:37:16;;;;;;;3.22;1.30;;;;;;;;;;4989082;28;21404;-74
2022/11/29 11:39:44;;;;;;;6.15;1.30;;;;;;;;;;4986341;28;20058;-68
2022/11/29 11:42:37;;;;;;;2.72;1.00;;;;;;;;;;4986551;28;20042;-68
2022/11/29 11:45:34;;;;;;;4.82;1.23;;;;;;;;;;4986762;28;20625;-68
2022/11/29 11:48:18;;;;;;;4.05;1.10;;;;;;;;;;4962340;28;20141;-67
2022/11/29 11:50:52;;;;;;;3.72;1.15;;;;;;;;;;4988170;28;20497;-71
2022/11/29 11:53:29;;;;;;;2.75;1.38;;;;;;;;;;4987552;28;20049;-68
2022/11/29 11:55:57;;;;;;;3.17;1.73;;;;;;;;;;4988379;28;20049;-71
2022/11/29 11:58:28;;;;;;;3.60;1.20;;;;;;;;;;4993555;28;20511;-69
2022/11/29 12:01:19;;;;;;;3.90;1.33;;;;;;;;;;4994291;28;20050;-72
2022/11/29 12:03:48;;;;;;;5.03;1.25;;;;;;;;;;4992322;28;20060;-67
2022/11/29 12:06:14;;;;;;;1.70;0.90;;;;;;;;;;4992424;28;20046;-72
2022/11/29 12:08:42;;;;;;;1.83;0.85;;;;;;;;;;4986931;28;20050;-69
2022/11/29 12:11:13;;;;;;;4.10;1.15;;;;;;;;;;4990694;28;20077;-68
2022/11/29 12:13:45;;;;;;;2.95;0.80;;;;;;;;;;4993899;28;20042;-68
2022/11/29 12:16:26;;;;;;;1.02;0.77;;;;;;;;;;4990988;28;21051;-69
2022/11/29 12:18:59;;;;;;;2.25;0.82;;;;;;;;;;4988099;28;20507;-67
2022/11/29 12:21:32;;;;;;;4.55;1.08;;;;;;;;;;4992469;28;20069;-68
2022/11/29 12:24:07;;;;;;;6.60;1.40;;;;;;;;;;4991333;28;20065;-70
2022/11/29 12:26:38;;;;;;;4.47;1.40;;;;;;;;;;4990170;28;20145;-68
2022/11/29 12:29:13;;;;;;;1.42;0.90;;;;;;;;;;4970649;28;20111;-69
2022/11/29 12:32:18;;;;;;;5.53;1.05;;;;;;;;;;4990084;28;20116;-70
2022/11/29 12:35:16;;;;;;;0.93;0.67;;;;;;;;;;4938910;28;20050;-68
2022/11/29 12:37:54;;;;;;;3.17;0.65;;;;;;;;;;4991979;28;20050;-67
2022/11/29 12:40:23;;;;;;;2.60;0.70;;;;;;;;;;4988875;28;20151;-74
2022/11/29 12:43:30;;;;;;;2.00;0.80;;;;;;;;;;4993285;28;20050;-70
2022/11/29 12:46:00;;;;;;;4.20;0.90;;;;;;;;;;4974384;28;20056;-67
2022/11/29 12:48:51;;;;;;;2.83;1.13;;;;;;;;;;4987699;28;20125;-65
2022/11/29 12:51:54;;;;;;;2.63;1.00;;;;;;;;;;4992170;28;20053;-66
2022/11/29 12:54:47;;;;;;;2.20;0.90;;;;;;;;;;4992390;28;20046;-67
2022/11/29 12:57:30;;;;;;;4.53;1.15;;;;;;;;;;4990184;28;20686;-70
2022/11/29 13:00:06;;;;;;;3.08;0.90;;;;;;;;;;4989139;28;20065;-69
2022/11/29 13:02:59;;;;;;;3.88;1.00;;;;;;;;;;4988090;28;20923;-68
2022/11/29 13:05:41;;;;;;;1.70;0.93;;;;;;;;;;4984375;28;20058;-69
2022/11/29 13:08:25;;;;;;;8.70;1.10;;;;;;;;;;4986736;28;20465;-68
2022/11/29 13:11:01;;;;;;;;;;;;;;;;;;4992677;28;20049;-70
2022/11/29 13:13:41;;;;;;;2.60;0.90;;;;;;;;;;4986839;28;19929;-70
2022/11/29 13:16:19;;;;;;;2.28;1.00;;;;;;;;;;4991303;28;20497;-70
2022/11/29 13:19:10;;;;;;;5.90;1.15;;;;;;;;;;4966969;28;20480;-68
2022/11/29 13:22:00;;;;;;;2.85;1.25;;;;;;;;;;4968814;28;20061;-70
2022/11/29 13:25:00;;;;;;;2.22;1.00;;;;;;;;;;4985959;28;20648;-69
2022/11/29 13:27:37;;;;;;;2.03;0.80;;;;;;;;;;4982670;28;20179;-69
2022/11/29 13:30:04;;;;;;;1.23;0.70;;;;;;;;;;4984614;28;20116;-69
2022/11/29 13:32:34;;;;;;;2.20;0.80;;;;;;;;;;4966366;28;20050;-69
2022/11/29 13:35:18;;;;;;;1.98;0.85;;;;;;;;;;4984179;28;20061;-69
2022/11/29 13:37:50;;;;;;;2.53;1.10;;;;;;;;;;4981604;28;20080;-67
2022/11/29 13:40:31;;;;;;;1.83;0.60;;;;;;;;;;4981641;28;20061;-70
2022/11/29 13:43:01;;;;;;;3.45;0.80;;;;;;;;;;4986482;28;20065;-68
2022/11/29 13:46:08;;;;;;;0.80;0.60;;;;;;;;;;4982594;28;20572;-69
2022/11/29 13:48:49;;;;;;;3.33;0.80;;;;;;;;;;4980725;28;20065;-68
2022/11/29 13:51:29;;;;;;;1.23;0.60;;;;;;;;;;4969952;28;20053;-70
2022/11/29 13:53:58;;;;;;;2.42;0.80;;;;;;;;;;4987292;28;20046;-67
2022/11/29 13:56:28;;;;;;;0.75;0.60;;;;;;;;;;4987203;28;20437;-71
2022/11/29 13:58:57;;;;;;;2.17;0.70;;;;;;;;;;4979798;28;21976;-70
2022/11/29 14:01:25;;;;;;;1.20;0.70;;;;;;;;;;4986257;28;20058;-71
2022/11/29 14:04:24;;;;;;;5.80;0.88;;;;;;;;;;4984900;28;20413;-69
2022/11/29 14:07:02;;;;;;;3.90;0.98;;;;;;;;;;4983331;28;20457;-68
2022/11/29 14:10:02;;;;;;;2.72;0.95;;;;;;;;;;4981945;28;20824;-70
2022/11/29 14:12:37;;;;;;;1.48;0.95;;;;;;;;;;4982733;28;20061;-67
2022/11/29 14:15:17;;;;;;;4.32;1.25;;;;;;;;;;4987792;28;20057;-67
2022/11/29 14:17:52;;;;;;;2.47;1.00;;;;;;;;;;4981158;28;20179;-69
2022/11/29 14:20:21;;;;;;;4.10;0.90;;;;;;;;;;4983496;28;20061;-68
2022/11/29 14:23:06;;;;;;;3.47;0.98;;;;;;;;;;4985624;28;20534;-68
2022/11/29 14:25:34;;;;;;;4.05;1.20;;;;;;;;;;4986060;28;20050;-70
2022/11/29 14:28:20;;;;;;;3.38;1.10;;;;;;;;;;4981801;28;20045;-69
2022/11/29 14:30:54;;;;;;;2.47;1.23;;;;;;;;;;4983113;28;20608;-64
2022/11/29 14:33:47;;;;;;;3.28;1.30;;;;;;;;;;4966974;28;20413;-65
2022/11/29 14:36:54;;;;;;;2.42;1.15;;;;;;;;;;4984155;28;20060;-66
2022/11/29 14:39:32;;;;;;;5.78;1.27;;;;;;;;;;4963899;28;20065;-64
2022/11/29 14:42:05;;;;;;;6.65;1.40;;;;;;;;;;4982633;28;20068;-71
2022/11/29 14:44:33;;;;;;;2.60;1.15;;;;;;;;;;4984030;28;20053;-67
2022/11/29 14:47:04;;;;;;;1.67;1.10;;;;;;;;;;4981981;28;20099;-70
2022/11/29 14:49:38;;;;;;;4.85;1.30;;;;;;;;;;4980528;28;20050;-67
2022/11/29 14:52:08;;;;;;;6.03;1.10;;;;;;;;;;4984309;28;21088;-69
2022/11/29 14:54:35;;;;;;;3.15;0.95;;;;;;;;;;4985248;28;20162;-68
2022/11/29 14:57:39;;;;;;;1.35;0.77;;;;;;;;;;4984312;28;20068;-71
2022/11/29 15:00:10;;;;;;;4.55;1.08;;;;;;;;;;4981772;28;21161;-69
2022/11/29 15:02:41;;;;;;;3.58;0.60;;;;;;;;;;4983192;28;20445;-67
2022/11/29 15:05:34;;;;;;;0.98;0.88;;;;;;;;;;4984816;28;20507;-68
2022/11/29 15:08:36;;;;;;;2.93;1.20;;;;;;;;;;4980425;28;20049;-66
2022/11/29 15:11:10;;;;;;;3.80;0.90;;;;;;;;;;4923990;28;20330;-70
2022/11/29 15:13:46;;;;;;;1.95;0.80;;;;;;;;;;4966898;28;20149;-68
2022/11/29 15:16:34;;;;;;;1.50;0.80;;;;;;;;;;4981933;28;20940;-67
2022/11/29 15:19:12;;;;;;;1.52;1.08;;;;;;;;;;4977855;28;20073;-66
2022/11/29 15:21:56;;;;;;;3.38;0.90;;;;;;;;;;4983622;28;20058;-67
2022/11/29 15:24:22;;;;;;;1.52;0.82;;;;;;;;;;4970719;28;20054;-65
2022/11/29 15:26:55;;;;;;;2.83;1.40;;;;;;;;;;4987182;28;20421;-67
2022/11/29 15:29:21;;;;;;;5.70;3.10;;;;;;;;;;4985570;28;20061;-68
2022/11/29 15:31:52;;;;;;;2.33;1.02;;;;;;;;;;4990805;28;20053;-65
2022/11/29 15:34:41;;;;;;;6.15;1.17;;;;;;;;;;4986457;28;20045;-68
2022/11/29 15:37:21;;;;;;;4.03;1.10;;;;;;;;;;4988713;28;20056;-67
2022/11/29 15:40:00;;;;;;;5.70;1.00;;;;;;;;;;4970976;28;20662;-67
2022/11/29 15:42:25;;;;;;;6.28;1.23;;;;;;;;;;4988619;28;20053;-66
2022/11/29 15:44:52;;;;;;;1.42;0.70;;;;;;;;;;4973765;28;20054;-69
2022/11/29 15:47:23;;;;;;;0.75;0.60;;;;;;;;;;4970764;28;20120;-67
2022/11/29 15:49:50;;;;;;;1.83;0.77;;;;;;;;;;4986466;28;20053;-67